Flight Track Log - Related Links

Times and Time Zones

All times are in EDT time to prevent confusion due to time zone crossing. See the SKW6290 flight status page for this flight to view local times or setup timezone preferences in your user account.

Time Position Orientation Groundspeed Altitude Reporting Facility
EDT Latitude Longitude Course Direction KTS MPH feet Rate Location/Type
Sat 09:08:04 PM 33.9017 -116.5636 329° Northwest 218 251 28,000  Level Los Angeles Center
Sat 09:09:00 PM 34.0240 -116.7848 338° Northwest  Level Estimated
Sat 09:09:06 PM 33.9408 -116.4969 55° Northeast 275 316 28,000  Level Los Angeles Center
Sat 09:10:00 PM 34.0887 -116.8778 342° North  Level Estimated
Sat 09:10:07 PM 33.9694 -116.4389 59° Northeast 259 298 8,700  Level Los Angeles Center
Sat 09:11:00 PM 34.1533 -116.9709 342° North  Level Estimated
Sat 09:11:09 PM 34.0417 -116.4669 342° North 282 325 11,100  Level Los Angeles Center
Sat 09:12:00 PM 34.2178 -117.0642 270° West  Level Estimated
Sat 09:12:10 PM 34.1031 -116.5181 325° Northwest 271 312 12,000  Level Los Angeles Center
Sat 09:13:12 PM 34.1875 -116.5533 341° North 328 377 13,100 1,122 Climbing Los Angeles Center
Sat 09:14:13 PM 34.3003 -116.5964 342° North 354 407 14,300 1,024 Climbing Los Angeles Center
Sat 09:15:15 PM 34.3958 -116.6350 342° North 363 418 15,200 1,073 Climbing Los Angeles Center
Sat 09:16:16 PM 34.4458 -116.7331 302° West 360 414 16,500 1,082 Climbing Los Angeles Center
Sat 09:17:17 PM 34.4767 -116.8200 293° West 357 411 17,400 1,171 Climbing Los Angeles Center
Sat 09:18:19 PM 34.5269 -116.9528 295° West 361 415 18,900 1,268 Climbing Los Angeles Center
Sat 09:19:20 PM 34.5692 -117.0644 295° West 365 420 20,000 1,024 Climbing Los Angeles Center
Sat 09:20:22 PM 34.6119 -117.1761 295° West 364 419 21,000 878 Climbing Los Angeles Center
Sat 09:21:23 PM 34.6550 -117.2917 294° West 370 426 21,800 878 Climbing Los Angeles Center
Sat 09:22:25 PM 34.6975 -117.4072 294° West 374 430 22,800 1,122 Climbing Los Angeles Center
Sat 09:23:26 PM 34.7492 -117.5461 294° West 375 432 24,100 1,122 Climbing Los Angeles Center
Sat 09:24:28 PM 34.7931 -117.6633 295° West 377 434 25,100 976 Climbing Los Angeles Center
Sat 09:25:29 PM 34.8350 -117.7792 294° West 372 428 26,100 984 Climbing Los Angeles Center
Sat 09:26:30 PM 34.8783 -117.8914 295° West 363 418 27,100 927 Climbing Los Angeles Center
Sat 09:27:32 PM 34.9194 -118.0028 294° West 360 414 28,000 439 Climbing Los Angeles Center
Sat 09:28:33 PM 34.9603 -118.1164 294° West 365 420 28,000  Level Los Angeles Center
Sat 09:29:35 PM 35.0039 -118.2356 294° West 382 440 28,000  Level Los Angeles Center
Sat 09:30:36 PM 35.0483 -118.3564 294° West 391 450 28,000  Level Los Angeles Center
Sat 09:31:37 PM 35.0928 -118.4797 294° West 396 456 28,000  Level Los Angeles Center
Sat 09:32:39 PM 35.1361 -118.6069 293° West 400 460 28,000  Level Los Angeles Center
Sat 09:33:40 PM 35.1772 -118.7322 292° West 400 460 28,000  Level Los Angeles Center
Sat 09:34:42 PM 35.2269 -118.8811 292° West 396 456 28,000  Level Los Angeles Center
Sat 09:35:43 PM 35.2672 -119.0058 292° West 401 461 28,000  Level Los Angeles Center
Sat 09:36:44 PM 35.3064 -119.1303 291° West 395 455 28,000  Level Los Angeles Center
Sat 09:37:46 PM 35.3464 -119.2569 291° West 397 457 28,000  Level Los Angeles Center
Sat 09:38:47 PM 35.3783 -119.3572 291° West 397 457 28,000  Level Los Angeles Center
Sat 09:39:49 PM 35.4261 -119.5106 291° West 400 460 28,000  Level Los Angeles Center
Sat 09:40:50 PM 35.4658 -119.6361 291° West 399 459 28,000  Level Los Angeles Center
Sat 09:41:51 PM 35.5050 -119.7606 291° West 396 456 28,000  Level Los Angeles Center
Sat 09:42:53 PM 35.5511 -119.9122 291° West 398 458 28,000  Level Los Angeles Center
Sat 09:43:54 PM 35.5908 -120.0378 291° West 397 457 28,000  Level Los Angeles Center
Sat 09:44:56 PM 35.6292 -120.1636 291° West 397 457 28,000  Level Los Angeles Center
Sat 09:45:57 PM 35.6672 -120.2886 291° West 398 458 28,000  Level Los Angeles Center
Sat 09:46:58 PM 35.7003 -120.3881 292° West 397 457 28,000  Level Los Angeles Center
Sat 09:47:49 PM 35.7297 -120.5389 284° West 384 442 28,000  Level Oakland Center
Sat 09:48:50 PM 35.7403 -120.6661 276° West 379 436 28,000  Level Oakland Center
Sat 09:49:51 PM 35.7517 -120.7919 276° West 375 432 28,000  Level Oakland Center
Sat 09:50:52 PM 35.7631 -120.9175 276° West 372 428 28,000  Level Oakland Center
Sat 09:51:52 PM 35.7733 -121.0403 276° West 366 421 28,000  Level Oakland Center
Sat 09:52:53 PM 35.8467 -121.1386 313° West 401 461 28,000  Level Oakland Center
Sat 09:53:54 PM 35.9400 -121.2244 323° Northwest 415 478 28,000  Level Oakland Center
Sat 09:54:55 PM 36.0333 -121.3097 324° Northwest 416 479 28,000  Level Oakland Center
Sat 09:55:56 PM 36.1292 -121.3942 325° Northwest 421 484 28,000  Level Oakland Center
Sat 09:56:56 PM 36.2233 -121.4786 324° Northwest 419 482 28,000  Level Oakland Center
Sat 09:57:57 PM 36.3167 -121.5658 323° Northwest 420 483 28,000 -197 Level Oakland Center
Sat 09:58:58 PM 36.4111 -121.6542 323° Northwest 424 488 27,600 -1,721 Descending Oakland Center
Sat 09:59:59 PM 36.5067 -121.7389 325° Northwest 421 484 24,500 -3,292 Descending Oakland Center
Sat 10:00:51 PM 36.6000 -121.8333 321° Northwest 389 448 21,400 -2,411 Descending Northern Cal TRACON
Sat 10:01:51 PM 36.6667 -121.9000 321° Northwest 316 364 20,000 -1,250 Descending Northern Cal TRACON
Sat 10:02:51 PM 36.7333 -121.9500 329° Northwest 282 325 18,900 -1,714 Descending Northern Cal TRACON
Sat 10:03:57 PM 36.8167 -121.9833 342° North 306 352 16,400 -2,286 Descending Northern Cal TRACON
Sat 10:04:57 PM 36.9000 -122.0000 351° North 303 349 14,100 -2,300 Descending Northern Cal TRACON
Sat 10:05:57 PM 36.9833 -122.0333 342° North 300 345 11,800 -2,000 Descending Northern Cal TRACON
Sat 10:06:57 PM 37.0667 -122.0500 351° North 281 323 10,100 -893 Descending Northern Cal TRACON
Sat 10:07:58 PM 37.1333 -122.0667 349° North 230 265 10,000 -744 Descending Northern Cal TRACON
Sat 10:08:58 PM 37.1667 -122.1167 310° West 216 249 8,600 -950 Descending Northern Cal TRACON
Sat 10:09:58 PM 37.2000 -122.1833 302° West 215 247 8,100 -250 Descending Northern Cal TRACON
Sat 10:10:58 PM 37.2500 -122.2333 321° Northwest 220 253 8,100 -600 Level Northern Cal TRACON
Sat 10:11:58 PM 37.3000 -122.2500 345° North 219 252 6,900 -1,000 Descending Northern Cal TRACON
Sat 10:12:58 PM 37.3500 -122.2167 28° Northeast 242 278 6,100 -900 Descending Northern Cal TRACON
Sat 10:13:58 PM 37.3833 -122.1333 63° Northeast 245 282 5,100 -900 Descending Northern Cal TRACON
Sat 10:14:58 PM 37.4333 -122.1000 28° Northeast 210 242 4,300 -550 Descending Northern Cal TRACON
Sat 10:15:58 PM 37.4667 -122.1000 360° North 167 192 4,000 -450 Descending Northern Cal TRACON
Sat 10:16:58 PM 37.5167 -122.1333 332° Northwest 164 189 3,400 -714 Descending Northern Cal TRACON
Sat 10:18:04 PM 37.5333 -122.1833 293° West 156 180 2,500 -500 Descending Northern Cal TRACON
Sat 10:18:58 PM 37.5500 -122.2167 302° West 133 153 2,400 -368 Descending Northern Cal TRACON
Sat 10:19:58 PM 37.5667 -122.2667 293° West 127 146 1,800 -650 Descending Northern Cal TRACON
Sat 10:20:58 PM 37.5833 -122.3000 302° West 129 148 1,100 -700 Descending Northern Cal TRACON
Sat 10:21:58 PM 37.6000 -122.3333 302° West 131 151 400 -700 Descending Northern Cal TRACON

Login

Don't have an account? Register now (free) for customized features, flight alerts, and more!